Time;durP1;ratioP1;P1;durP2;ratioP2;P2;SDS_P1;SDS_P2;PMS_P1;PMS_P2;Temp;Humidity;BMP_temperature;BMP_pressure;BME280_temperature;BME280_humidity;BME280_pressure;Samples;Min_cycle;Max_cycle;Signal;HPM_P1;HPM_P2
2023/10/04 00:04:04;;;;;;;;;;;21.00;54.50;;;;;;10318452;28;89111;-48
2023/10/04 00:09:06;;;;;;;;;;;21.00;54.50;;;;;;10323513;28;89014;-50
2023/10/04 00:14:08;;;;;;;;;;;21.00;54.40;;;;;;10332830;28;90098;-51
2023/10/04 00:19:12;;;;;;;;;;;21.00;54.40;;;;;;10331085;28;90024;-48
2023/10/04 00:24:14;;;;;;;;;;;21.00;54.40;;;;;;10331275;28;89062;-54
2023/10/04 00:29:18;;;;;;;;;;;21.00;54.30;;;;;;10339746;28;90080;-54
2023/10/04 00:34:20;;;;;;;;;;;21.00;54.40;;;;;;10306510;28;88413;-53
2023/10/04 00:39:22;;;;;;;;;;;21.00;54.20;;;;;;10327613;28;90891;-52
2023/10/04 00:44:24;;;;;;;;;;;21.00;54.20;;;;;;10331994;28;90129;-51
2023/10/04 00:49:26;;;;;;;;;;;21.00;54.10;;;;;;10318164;28;90004;-50
2023/10/04 00:54:29;;;;;;;;;;;21.00;54.10;;;;;;10331364;28;90299;-52
2023/10/04 00:59:31;;;;;;;;;;;21.00;54.10;;;;;;10335406;28;89046;-51
2023/10/04 01:04:33;;;;;;;;;;;21.00;53.90;;;;;;10773680;22;90081;-48
2023/10/04 01:09:35;;;;;;;;;;;21.00;53.90;;;;;;10371413;27;89997;-45
2023/10/04 01:14:38;;;;;;;;;;;21.00;53.80;;;;;;10352434;28;90827;-44
2023/10/04 01:19:40;;;;;;;;;;;21.00;53.80;;;;;;10362705;28;89346;-44
2023/10/04 01:24:42;;;;;;;;;;;21.00;53.70;;;;;;10368606;28;88657;-43
2023/10/04 01:29:45;;;;;;;;;;;21.10;53.70;;;;;;10368785;28;90735;-45
2023/10/04 01:34:47;;;;;;;;;;;21.10;53.60;;;;;;10372586;27;88796;-46
2023/10/04 01:39:48;;;;;;;;;;;21.10;53.50;;;;;;10361126;28;89223;-47
2023/10/04 01:44:50;;;;;;;;;;;21.10;53.60;;;;;;10362224;28;89923;-43
2023/10/04 01:49:52;;;;;;;;;;;21.10;53.40;;;;;;10368968;28;91281;-43
2023/10/04 01:54:54;;;;;;;;;;;21.10;53.40;;;;;;10367403;28;89946;-46
2023/10/04 01:59:57;;;;;;;;;;;21.10;53.30;;;;;;10365752;28;89863;-45
2023/10/04 02:05:01;;;;;;;;;;;21.10;53.20;;;;;;10368333;28;89335;-45
2023/10/04 02:10:02;;;;;;;;;;;21.10;53.20;;;;;;10368676;28;89643;-48
2023/10/04 02:15:07;;;;;;;;;;;21.00;53.10;;;;;;10360569;28;90175;-45
2023/10/04 02:20:10;;;;;;;;;;;21.00;53.10;;;;;;10366066;28;89644;-44
2023/10/04 02:25:13;;;;;;;;;;;21.00;53.00;;;;;;10357451;28;90373;-45
2023/10/04 02:30:26;;;;;;;;;;;21.00;53.00;;;;;;10369402;28;89429;-44
2023/10/04 02:35:34;;;;;;;;;;;21.00;53.10;;;;;;10355518;28;89911;-42
2023/10/04 02:40:37;;;;;;;;;;;21.00;53.00;;;;;;10368604;28;90264;-43
2023/10/04 02:45:41;;;;;;;;;;;21.00;52.90;;;;;;10368330;28;89883;-45
2023/10/04 02:50:44;;;;;;;;;;;21.00;52.90;;;;;;10363469;28;89034;-43
2023/10/04 02:55:47;;;;;;;;;;;21.00;52.90;;;;;;10366574;28;88264;-43
2023/10/04 03:00:49;;;;;;;;;;;21.00;52.80;;;;;;10346792;28;90082;-46
2023/10/04 03:05:54;;;;;;;;;;;20.90;52.70;;;;;;10367934;27;89055;-45
2023/10/04 03:10:56;;;;;;;;;;;20.90;52.80;;;;;;10367041;28;89747;-47
2023/10/04 03:15:58;;;;;;;;;;;20.90;52.70;;;;;;10363510;28;90164;-45
2023/10/04 03:26:03;;;;;;;;;;;20.90;52.60;;;;;;10347608;28;89219;-48
2023/10/04 03:31:14;;;;;;;;;;;20.90;52.70;;;;;;10352521;28;89028;-45
2023/10/04 03:36:19;;;;;;;;;;;20.90;52.70;;;;;;10375782;28;89372;-46
2023/10/04 03:41:21;;;;;;;;;;;20.90;52.60;;;;;;10365910;28;89457;-43
2023/10/04 03:46:23;;;;;;;;;;;20.90;52.60;;;;;;10367583;28;89443;-43
2023/10/04 03:51:26;;;;;;;;;;;20.90;52.60;;;;;;10365735;28;90436;-43
2023/10/04 03:56:28;;;;;;;;;;;20.80;52.50;;;;;;10389673;28;89736;-45
2023/10/04 04:01:30;;;;;;;;;;;20.80;52.50;;;;;;10369904;28;91372;-46
2023/10/04 04:06:33;;;;;;;;;;;20.80;52.50;;;;;;10387508;27;90065;-44
2023/10/04 04:11:35;;;;;;;;;;;20.90;52.60;;;;;;10371008;28;90050;-43
2023/10/04 04:16:37;;;;;;;;;;;20.90;52.60;;;;;;10371069;28;90122;-43
2023/10/04 04:21:40;;;;;;;;;;;20.80;52.40;;;;;;10343988;28;89641;-43
2023/10/04 04:26:41;;;;;;;;;;;20.80;52.40;;;;;;10381087;28;89236;-46
2023/10/04 04:31:44;;;;;;;;;;;20.80;52.40;;;;;;10378680;28;88935;-44
2023/10/04 04:36:46;;;;;;;;;;;20.80;52.30;;;;;;10375263;27;89235;-43
2023/10/04 04:41:52;;;;;;;;;;;20.80;52.30;;;;;;10381144;27;90560;-43
2023/10/04 04:46:55;;;;;;;;;;;20.90;52.30;;;;;;10389037;28;90301;-43
2023/10/04 04:51:59;;;;;;;;;;;20.90;52.20;;;;;;10378902;27;91013;-46
2023/10/04 04:57:02;;;;;;;;;;;20.90;52.20;;;;;;10362224;28;90300;-44
2023/10/04 05:02:05;;;;;;;;;;;20.90;52.10;;;;;;10371735;28;92432;-42
2023/10/04 05:07:09;;;;;;;;;;;20.90;52.10;;;;;;10365229;28;90299;-44
2023/10/04 05:12:11;;;;;;;;;;;20.90;52.10;;;;;;10370819;28;89011;-46
2023/10/04 05:17:14;;;;;;;;;;;20.90;52.00;;;;;;10372006;28;90173;-45
2023/10/04 05:22:15;;;;;;;;;;;20.90;51.90;;;;;;10362663;28;89954;-46
2023/10/04 05:27:18;;;;;;;;;;;20.90;52.20;;;;;;10367277;28;89914;-44
2023/10/04 05:32:21;;;;;;;;;;;20.90;53.40;;;;;;10368283;28;90194;-50
2023/10/04 05:37:23;;;;;;;;;;;20.90;53.30;;;;;;10357377;28;89222;-47
2023/10/04 05:42:25;;;;;;;;;;;20.90;53.60;;;;;;10355733;28;91256;-44
2023/10/04 05:47:26;;;;;;;;;;;20.90;53.60;;;;;;10362459;27;88468;-43
2023/10/04 05:52:30;;;;;;;;;;;20.90;53.90;;;;;;10366146;28;90246;-44
2023/10/04 05:57:33;;;;;;;;;;;20.90;53.70;;;;;;10369748;28;90020;-45
2023/10/04 06:02:35;;;;;;;;;;;20.80;53.80;;;;;;10363946;28;90075;-43
2023/10/04 06:07:37;;;;;;;;;;;20.80;53.50;;;;;;10359764;28;89799;-43
2023/10/04 06:12:39;;;;;;;;;;;20.80;53.90;;;;;;10365282;28;89056;-46
2023/10/04 06:17:42;;;;;;;;;;;20.70;54.10;;;;;;10370011;27;87937;-45
2023/10/04 06:22:44;;;;;;;;;;;20.70;54.20;;;;;;10366481;28;89136;-43
2023/10/04 06:27:47;;;;;;;;;;;20.70;54.50;;;;;;10361980;28;92527;-44
2023/10/04 06:32:49;;;;;;;;;;;20.70;54.70;;;;;;10360304;28;89371;-42
2023/10/04 06:37:52;;;;;;;;;;;20.70;55.00;;;;;;10349831;28;89518;-43
2023/10/04 06:42:55;;;;;;;;;;;20.60;55.00;;;;;;10352231;28;88998;-43
2023/10/04 06:47:58;;;;;;;;;;;20.70;55.20;;;;;;10356464;28;90202;-45
2023/10/04 06:53:03;;;;;;;;;;;20.60;55.40;;;;;;10362335;28;90036;-43
2023/10/04 06:58:06;;;;;;;;;;;20.60;55.50;;;;;;10360630;28;90205;-43
2023/10/04 07:03:09;;;;;;;;;;;20.60;55.60;;;;;;10362264;28;90364;-43
2023/10/04 07:08:16;;;;;;;;;;;20.60;55.80;;;;;;10350588;28;89118;-43
2023/10/04 07:13:18;;;;;;;;;;;20.60;55.90;;;;;;10375529;28;90061;-48
2023/10/04 07:18:20;;;;;;;;;;;20.60;56.10;;;;;;10356115;28;90356;-43
2023/10/04 07:23:22;;;;;;;;;;;20.50;56.20;;;;;;10379059;28;89994;-45
2023/10/04 07:28:43;;;;;;;;;;;20.50;56.30;;;;;;10352244;28;90103;-43
2023/10/04 07:33:45;;;;;;;;;;;20.50;56.50;;;;;;10375260;28;88948;-46
2023/10/04 07:38:47;;;;;;;;;;;20.60;56.50;;;;;;10366820;28;89461;-46
2023/10/04 07:43:48;;;;;;;;;;;20.50;56.50;;;;;;10374387;28;90745;-46
2023/10/04 07:48:50;;;;;;;;;;;20.60;56.50;;;;;;10368257;28;90393;-43
2023/10/04 07:53:52;;;;;;;;;;;20.50;56.60;;;;;;10365745;28;90296;-43
2023/10/04 07:58:54;;;;;;;;;;;20.50;56.50;;;;;;10371650;28;89101;-48
2023/10/04 08:03:57;;;;;;;;;;;20.50;56.60;;;;;;10370090;28;90047;-45
2023/10/04 08:08:59;;;;;;;;;;;20.60;56.80;;;;;;10371161;28;90625;-44
2023/10/04 08:14:07;;;;;;;;;;;20.60;56.80;;;;;;10361506;28;89775;-44
2023/10/04 08:19:09;;;;;;;;;;;20.60;56.90;;;;;;10373020;28;88600;-45
2023/10/04 08:24:11;;;;;;;;;;;20.60;57.00;;;;;;10368670;28;90138;-47
2023/10/04 08:29:13;;;;;;;;;;;20.60;57.10;;;;;;10375379;28;89083;-43
2023/10/04 08:34:18;;;;;;;;;;;20.60;57.10;;;;;;10370249;28;89478;-46
2023/10/04 08:39:20;;;;;;;;;;;20.70;57.10;;;;;;10367527;28;90421;-47
2023/10/04 08:44:22;;;;;;;;;;;20.60;57.20;;;;;;10365537;28;88906;-47
2023/10/04 08:49:24;;;;;;;;;;;20.70;57.20;;;;;;10371636;28;88483;-44
2023/10/04 08:54:26;;;;;;;;;;;20.60;57.10;;;;;;10359271;28;89843;-45
2023/10/04 08:59:28;;;;;;;;;;;20.70;57.30;;;;;;10373718;28;90664;-43
2023/10/04 09:04:30;;;;;;;;;;;20.70;57.40;;;;;;10361381;28;89820;-43
2023/10/04 09:09:39;;;;;;;;;;;20.70;57.40;;;;;;10367598;28;90383;-48
2023/10/04 09:14:46;;;;;;;;;;;20.70;57.50;;;;;;10371940;28;89706;-44
2023/10/04 09:19:48;;;;;;;;;;;20.70;57.50;;;;;;10365083;28;89366;-45
2023/10/04 09:24:54;;;;;;;;;;;20.80;58.50;;;;;;10352208;28;89958;-44
2023/10/04 09:29:58;;;;;;;;;;;20.70;57.50;;;;;;10361612;28;90080;-44
2023/10/04 09:35:00;;;;;;;;;;;20.70;57.50;;;;;;10372251;28;90605;-47
2023/10/04 09:40:06;;;;;;;;;;;20.80;58.60;;;;;;10365895;28;89713;-45
2023/10/04 09:45:08;;;;;;;;;;;20.70;57.70;;;;;;10357261;28;90107;-48
2023/10/04 09:50:13;;;;;;;;;;;20.70;57.90;;;;;;10364732;28;90043;-48
2023/10/04 09:55:15;;;;;;;;;;;20.70;57.80;;;;;;10368938;28;90270;-44
2023/10/04 10:00:17;;;;;;;;;;;20.70;58.10;;;;;;10358547;28;90296;-47
2023/10/04 10:05:26;;;;;;;;;;;20.70;58.10;;;;;;10365368;28;90182;-45
2023/10/04 10:10:28;;;;;;;;;;;20.70;58.20;;;;;;10362337;28;89218;-43
2023/10/04 10:15:31;;;;;;;;;;;20.70;58.10;;;;;;10361655;28;89980;-45
2023/10/04 10:20:33;;;;;;;;;;;20.60;58.20;;;;;;10356844;28;90478;-44
2023/10/04 10:25:38;;;;;;;;;;;20.60;58.30;;;;;;10364304;28;90408;-43
2023/10/04 10:30:43;;;;;;;;;;;20.60;58.50;;;;;;10365304;28;89277;-44
2023/10/04 10:35:58;;;;;;;;;;;20.60;58.40;;;;;;10360334;28;89690;-45
2023/10/04 10:41:00;;;;;;;;;;;20.60;58.50;;;;;;10367103;28;89227;-45
2023/10/04 10:46:20;;;;;;;;;;;20.60;58.50;;;;;;10357335;28;89842;-43
2023/10/04 10:51:39;;;;;;;;;;;20.60;58.60;;;;;;10355667;28;89992;-45
2023/10/04 10:56:43;;;;;;;;;;;20.60;58.60;;;;;;10358815;28;109687;-44
2023/10/04 11:01:45;;;;;;;;;;;20.60;58.90;;;;;;10347438;28;90002;-48
2023/10/04 11:06:47;;;;;;;;;;;20.60;58.80;;;;;;10367226;28;89951;-44
2023/10/04 11:11:49;;;;;;;;;;;20.60;58.90;;;;;;10361908;28;90095;-43
2023/10/04 11:16:51;;;;;;;;;;;20.60;58.80;;;;;;10365734;28;90154;-45
2023/10/04 11:21:57;;;;;;;;;;;20.60;59.00;;;;;;10360638;28;88925;-45
2023/10/04 11:26:59;;;;;;;;;;;20.60;59.10;;;;;;10368582;28;93514;-45
2023/10/04 11:32:01;;;;;;;;;;;20.60;59.10;;;;;;10364131;28;90018;-48
2023/10/04 11:37:03;;;;;;;;;;;20.60;59.10;;;;;;10335949;28;91219;-48
2023/10/04 11:42:14;;;;;;;;;;;20.60;59.10;;;;;;10344556;28;90050;-44
2023/10/04 11:47:34;;;;;;;;;;;20.60;59.00;;;;;;10368295;28;91229;-47
2023/10/04 11:52:39;;;;;;;;;;;20.60;59.00;;;;;;10354628;28;90443;-47
2023/10/04 11:57:41;;;;;;;;;;;20.70;59.10;;;;;;10373941;28;89066;-45
2023/10/04 12:02:43;;;;;;;;;;;20.70;59.10;;;;;;10373253;28;89039;-44
2023/10/04 12:07:45;;;;;;;;;;;20.70;59.10;;;;;;10371663;28;90306;-45
2023/10/04 12:12:47;;;;;;;;;;;20.70;59.20;;;;;;10365517;28;89506;-43
2023/10/04 12:17:49;;;;;;;;;;;20.70;59.20;;;;;;10373590;28;90068;-47
2023/10/04 12:22:51;;;;;;;;;;;20.70;59.30;;;;;;10371897;28;90242;-43
2023/10/04 12:27:54;;;;;;;;;;;20.70;59.20;;;;;;10372949;28;91069;-43
2023/10/04 12:32:57;;;;;;;;;;;20.70;59.10;;;;;;10365545;28;89393;-43
2023/10/04 12:37:58;;;;;;;;;;;20.70;59.10;;;;;;10373931;28;90108;-43
2023/10/04 12:43:01;;;;;;;;;;;20.70;59.20;;;;;;10371587;28;90036;-43
2023/10/04 12:48:03;;;;;;;;;;;20.70;59.20;;;;;;10360161;28;88573;-44
2023/10/04 12:53:09;;;;;;;;;;;20.70;59.20;;;;;;10360058;28;89822;-48
2023/10/04 12:58:12;;;;;;;;;;;20.70;59.30;;;;;;10371448;28;90116;-42
2023/10/04 13:03:14;;;;;;;;;;;20.70;59.30;;;;;;10354632;28;88274;-43
2023/10/04 13:08:20;;;;;;;;;;;20.70;59.50;;;;;;10345375;28;90038;-44
2023/10/04 13:13:23;;;;;;;;;;;20.70;59.50;;;;;;10370486;27;89006;-43
2023/10/04 13:18:25;;;;;;;;;;;20.60;59.50;;;;;;10366656;28;90428;-43
2023/10/04 13:23:28;;;;;;;;;;;20.60;59.40;;;;;;10362353;28;89269;-43
2023/10/04 13:28:30;;;;;;;;;;;20.70;59.50;;;;;;10365898;28;89084;-42
2023/10/04 13:33:34;;;;;;;;;;;20.60;59.50;;;;;;10357059;28;90111;-44
2023/10/04 13:38:36;;;;;;;;;;;20.60;59.40;;;;;;10362717;28;89986;-44
2023/10/04 13:43:38;;;;;;;;;;;20.60;59.50;;;;;;10354974;28;89706;-45
2023/10/04 13:48:41;;;;;;;;;;;20.60;59.60;;;;;;10370640;28;89464;-48
2023/10/04 13:53:45;;;;;;;;;;;20.60;59.60;;;;;;10362154;28;89255;-43
2023/10/04 13:58:48;;;;;;;;;;;20.60;59.70;;;;;;10355218;28;90059;-43
2023/10/04 14:03:51;;;;;;;;;;;20.60;59.60;;;;;;10362337;28;90044;-44
2023/10/04 14:08:53;;;;;;;;;;;20.60;59.80;;;;;;10364979;28;90903;-43
2023/10/04 14:13:55;;;;;;;;;;;20.60;59.60;;;;;;10360883;28;88999;-43
2023/10/04 14:18:58;;;;;;;;;;;20.60;59.70;;;;;;10364286;28;90331;-45
2023/10/04 14:24:00;;;;;;;;;;;20.60;59.80;;;;;;10356525;28;90227;-43
2023/10/04 14:29:04;;;;;;;;;;;20.60;59.80;;;;;;10363508;28;89671;-45
2023/10/04 14:34:06;;;;;;;;;;;20.60;60.80;;;;;;10359416;28;89002;-45
2023/10/04 14:39:08;;;;;;;;;;;20.60;60.00;;;;;;10357967;28;90299;-43
2023/10/04 14:44:11;;;;;;;;;;;20.60;60.00;;;;;;10382484;28;90134;-44
2023/10/04 14:49:15;;;;;;;;;;;20.60;60.00;;;;;;10358225;28;89698;-44
2023/10/04 14:54:18;;;;;;;;;;;20.60;60.00;;;;;;10363263;28;89260;-45
2023/10/04 14:59:19;;;;;;;;;;;20.60;60.10;;;;;;10359585;28;91036;-43
2023/10/04 15:04:22;;;;;;;;;;;20.60;60.00;;;;;;10364451;28;90121;-44
2023/10/04 15:09:25;;;;;;;;;;;20.60;60.00;;;;;;10356818;28;89998;-43
2023/10/04 15:14:28;;;;;;;;;;;20.60;60.00;;;;;;10358311;28;90189;-43
2023/10/04 15:19:30;;;;;;;;;;;20.60;60.10;;;;;;10358720;28;88757;-43
2023/10/04 15:24:33;;;;;;;;;;;20.60;60.00;;;;;;10376114;28;90129;-43
2023/10/04 15:29:35;;;;;;;;;;;20.60;60.00;;;;;;10350052;28;89958;-45
2023/10/04 15:34:37;;;;;;;;;;;20.60;60.00;;;;;;10384689;28;88314;-47
2023/10/04 15:39:40;;;;;;;;;;;20.60;60.00;;;;;;10360513;28;89151;-43
2023/10/04 15:44:42;;;;;;;;;;;20.60;60.10;;;;;;10374865;28;88969;-48
2023/10/04 15:49:43;;;;;;;;;;;20.70;60.50;;;;;;10370360;28;90105;-47
2023/10/04 15:54:46;;;;;;;;;;;20.80;60.80;;;;;;10369415;28;89650;-44
2023/10/04 15:59:49;;;;;;;;;;;21.00;61.30;;;;;;10368016;28;90174;-45
2023/10/04 16:04:51;;;;;;;;;;;21.20;61.40;;;;;;10367232;28;89553;-44
2023/10/04 16:09:53;;;;;;;;;;;21.30;64.50;;;;;;10363780;28;89104;-46
2023/10/04 16:14:55;;;;;;;;;;;21.50;65.90;;;;;;10367861;28;89203;-44
2023/10/04 16:19:57;;;;;;;;;;;21.60;64.10;;;;;;10370767;28;90477;-44
2023/10/04 16:25:00;;;;;;;;;;;21.80;62.60;;;;;;10363106;28;88779;-44
2023/10/04 16:30:05;;;;;;;;;;;21.90;61.80;;;;;;10365332;28;89098;-45
2023/10/04 16:35:13;;;;;;;;;;;22.00;61.70;;;;;;10369928;28;92514;-45
2023/10/04 16:40:15;;;;;;;;;;;22.10;61.40;;;;;;10364159;28;90276;-44
2023/10/04 16:45:18;;;;;;;;;;;22.10;61.80;;;;;;10369090;28;91332;-45
2023/10/04 16:50:20;;;;;;;;;;;22.10;62.20;;;;;;10369757;28;90361;-43
2023/10/04 16:55:22;;;;;;;;;;;22.10;62.30;;;;;;10346666;27;88638;-44
2023/10/04 17:00:24;;;;;;;;;;;22.00;62.50;;;;;;10368139;28;90406;-44
2023/10/04 17:05:26;;;;;;;;;;;22.00;62.80;;;;;;10368302;28;89153;-44
2023/10/04 17:10:33;;;;;;;;;;;21.90;63.20;;;;;;10365683;28;90021;-44
2023/10/04 17:15:34;;;;;;;;;;;21.80;62.90;;;;;;10356094;28;89003;-43
2023/10/04 17:20:36;;;;;;;;;;;21.80;62.80;;;;;;10367489;28;89104;-43
2023/10/04 17:25:38;;;;;;;;;;;21.70;62.90;;;;;;10362007;28;90700;-43
2023/10/04 17:30:40;;;;;;;;;;;21.60;62.90;;;;;;10361588;28;90728;-44
2023/10/04 17:35:42;;;;;;;;;;;21.60;63.20;;;;;;10356778;28;89281;-48
2023/10/04 17:40:44;;;;;;;;;;;21.60;63.30;;;;;;10370042;28;89820;-44
2023/10/04 17:45:47;;;;;;;;;;;21.50;63.90;;;;;;10367571;28;89132;-46
2023/10/04 17:50:50;;;;;;;;;;;21.50;63.40;;;;;;10354221;28;89735;-44
2023/10/04 17:55:52;;;;;;;;;;;21.40;63.40;;;;;;10362258;28;90086;-42
2023/10/04 18:00:54;;;;;;;;;;;21.40;63.40;;;;;;10353128;28;89062;-43
2023/10/04 18:05:56;;;;;;;;;;;21.40;63.50;;;;;;10364854;27;89367;-48
2023/10/04 18:10:58;;;;;;;;;;;21.30;63.40;;;;;;10363226;28;89066;-44
2023/10/04 18:16:02;;;;;;;;;;;21.30;63.80;;;;;;10357974;28;90453;-47
2023/10/04 18:21:04;;;;;;;;;;;21.30;63.90;;;;;;10367105;28;89383;-45
2023/10/04 18:26:07;;;;;;;;;;;21.30;63.90;;;;;;10363319;28;89881;-44
2023/10/04 18:31:09;;;;;;;;;;;21.30;63.90;;;;;;10363276;28;89839;-44
2023/10/04 18:36:14;;;;;;;;;;;21.20;64.30;;;;;;10363448;28;88970;-44
2023/10/04 18:41:16;;;;;;;;;;;21.30;64.00;;;;;;10378271;28;90413;-45
2023/10/04 18:46:20;;;;;;;;;;;21.20;64.10;;;;;;10359260;28;90179;-46
2023/10/04 18:51:22;;;;;;;;;;;21.20;64.10;;;;;;10375696;27;89992;-44
2023/10/04 18:56:25;;;;;;;;;;;21.20;64.10;;;;;;10366918;28;88307;-43
2023/10/04 19:01:27;;;;;;;;;;;21.20;64.10;;;;;;10363151;28;90346;-44
2023/10/04 19:06:32;;;;;;;;;;;21.20;64.10;;;;;;10366819;28;89458;-44
2023/10/04 19:11:35;;;;;;;;;;;21.20;64.20;;;;;;10352327;28;91769;-43
2023/10/04 19:16:37;;;;;;;;;;;21.20;64.10;;;;;;10380621;27;90205;-46
2023/10/04 19:21:40;;;;;;;;;;;21.20;64.30;;;;;;10366367;28;90086;-43
2023/10/04 19:26:44;;;;;;;;;;;21.20;64.20;;;;;;10362813;28;89599;-43
2023/10/04 19:31:47;;;;;;;;;;;21.20;64.10;;;;;;10364134;28;89023;-43
2023/10/04 19:36:49;;;;;;;;;;;21.20;64.30;;;;;;10360500;28;90277;-46
2023/10/04 19:41:51;;;;;;;;;;;21.20;64.40;;;;;;10352224;28;90612;-42
2023/10/04 19:46:53;;;;;;;;;;;21.20;64.40;;;;;;10368274;28;88844;-43
2023/10/04 19:51:56;;;;;;;;;;;21.10;64.40;;;;;;10354486;28;90002;-45
2023/10/04 19:56:58;;;;;;;;;;;21.10;64.40;;;;;;10364092;28;89719;-44
2023/10/04 20:02:01;;;;;;;;;;;21.10;64.30;;;;;;10357508;28;90892;-44
2023/10/04 20:07:05;;;;;;;;;;;21.10;64.30;;;;;;10370122;27;91271;-46
2023/10/04 20:12:09;;;;;;;;;;;21.10;64.20;;;;;;10360381;28;89050;-43
2023/10/04 20:17:12;;;;;;;;;;;21.10;64.10;;;;;;10400316;27;90471;-45
2023/10/04 20:22:15;;;;;;;;;;;21.10;64.20;;;;;;10379276;28;88721;-42
2023/10/04 20:27:17;;;;;;;;;;;21.00;64.10;;;;;;10376248;27;90002;-43
2023/10/04 20:32:19;;;;;;;;;;;21.00;64.00;;;;;;10357970;28;89011;-43
2023/10/04 20:37:21;;;;;;;;;;;20.90;63.90;;;;;;10358597;28;88824;-43
2023/10/04 20:42:23;;;;;;;;;;;20.90;63.90;;;;;;10356705;28;90319;-46
2023/10/04 20:47:26;;;;;;;;;;;20.90;63.90;;;;;;10374263;28;90153;-43
2023/10/04 20:52:27;;;;;;;;;;;20.90;63.90;;;;;;10374066;28;90544;-44
2023/10/04 20:57:33;;;;;;;;;;;20.90;63.80;;;;;;10369026;28;89907;-43
2023/10/04 21:02:35;;;;;;;;;;;20.80;63.70;;;;;;10370895;28;89516;-43
2023/10/04 21:07:37;;;;;;;;;;;20.80;63.80;;;;;;10366252;27;89026;-43
2023/10/04 21:12:39;;;;;;;;;;;20.80;63.70;;;;;;10362040;28;90201;-44
2023/10/04 21:17:42;;;;;;;;;;;20.80;63.60;;;;;;10367869;28;90266;-43
2023/10/04 21:22:45;;;;;;;;;;;20.80;63.60;;;;;;10373888;28;90141;-43
2023/10/04 21:27:47;;;;;;;;;;;20.70;63.60;;;;;;10362675;28;89878;-42
2023/10/04 21:32:58;;;;;;;;;;;20.70;63.40;;;;;;10367190;28;90389;-44
2023/10/04 21:38:07;;;;;;;;;;;20.70;63.50;;;;;;10369883;28;89151;-42
2023/10/04 21:43:09;;;;;;;;;;;20.70;63.50;;;;;;10383758;28;90635;-43
2023/10/04 21:48:17;;;;;;;;;;;20.70;63.50;;;;;;10370015;28;88910;-45
2023/10/04 21:53:19;;;;;;;;;;;20.70;63.40;;;;;;10368673;28;89398;-43
2023/10/04 21:58:21;;;;;;;;;;;20.60;63.40;;;;;;10368614;28;90029;-44
2023/10/04 22:03:24;;;;;;;;;;;20.70;63.40;;;;;;10373149;28;89383;-43
2023/10/04 22:08:27;;;;;;;;;;;20.70;63.40;;;;;;10384630;28;90127;-44
2023/10/04 22:13:31;;;;;;;;;;;20.70;63.40;;;;;;10370358;28;90272;-44
2023/10/04 22:18:32;;;;;;;;;;;20.60;63.30;;;;;;10379926;28;89271;-42
2023/10/04 22:23:34;;;;;;;;;;;20.60;63.40;;;;;;10362308;28;89357;-43
2023/10/04 22:28:36;;;;;;;;;;;20.60;63.30;;;;;;10364510;28;89570;-43
2023/10/04 22:33:39;;;;;;;;;;;20.60;63.20;;;;;;10363380;28;91141;-42
2023/10/04 22:38:41;;;;;;;;;;;20.60;63.20;;;;;;10353345;28;90152;-44
2023/10/04 22:43:44;;;;;;;;;;;20.60;63.20;;;;;;10364900;28;90604;-44
2023/10/04 22:48:46;;;;;;;;;;;20.60;63.10;;;;;;10357329;28;90106;-43
2023/10/04 22:53:48;;;;;;;;;;;20.60;63.00;;;;;;10366980;28;88165;-44
2023/10/04 22:58:50;;;;;;;;;;;20.60;63.00;;;;;;10360544;28;89369;-45
2023/10/04 23:03:55;;;;;;;;;;;20.60;63.10;;;;;;10367089;28;91282;-43
2023/10/04 23:08:58;;;;;;;;;;;20.60;63.00;;;;;;10347076;28;89301;-43
2023/10/04 23:14:00;;;;;;;;;;;20.60;63.00;;;;;;10367312;28;90003;-42
2023/10/04 23:19:10;;;;;;;;;;;20.60;63.00;;;;;;10355790;28;90031;-45
2023/10/04 23:24:16;;;;;;;;;;;20.60;63.00;;;;;;10365605;28;90993;-43
2023/10/04 23:29:18;;;;;;;;;;;20.60;63.00;;;;;;10382516;27;90039;-42
2023/10/04 23:34:20;;;;;;;;;;;20.60;62.90;;;;;;10358210;28;90440;-47
2023/10/04 23:39:29;;;;;;;;;;;20.60;62.90;;;;;;10367427;28;90307;-43
2023/10/04 23:44:31;;;;;;;;;;;20.60;63.00;;;;;;10368514;28;90705;-43
2023/10/04 23:49:32;;;;;;;;;;;20.60;62.90;;;;;;10369427;28;89024;-46
2023/10/04 23:54:38;;;;;;;;;;;20.60;62.90;;;;;;10372402;28;89799;-48
2023/10/04 23:59:40;;;;;;;;;;;20.60;62.90;;;;;;10375159;28;89832;-48
